createdAt,value
2019-01-24T01:48:38.242Z,23.1
2019-01-24T01:58:37.450Z,23.1
2019-01-24T02:08:36.657Z,23.2
2019-01-24T02:18:35.867Z,23.3
2019-01-24T02:28:35.073Z,23.3
2019-01-24T02:38:34.283Z,23.3
2019-01-24T02:48:33.488Z,23.3
2019-01-24T02:58:32.695Z,23.3
2019-01-24T03:08:31.903Z,23.3
2019-01-24T03:18:31.111Z,23.3
2019-01-24T03:28:30.317Z,23.3
2019-01-24T03:38:29.524Z,23.3
2019-01-24T03:48:28.732Z,23.4
2019-01-24T03:58:27.939Z,23.4
2019-01-24T04:08:27.149Z,23.3
2019-01-24T04:18:26.355Z,23.6
2019-01-24T04:28:25.586Z,23.6
2019-01-24T04:38:24.771Z,23.6
2019-01-24T04:48:23.983Z,24.2
2019-01-24T04:58:23.198Z,23.2
2019-01-24T05:08:22.406Z,23
2019-01-24T05:18:21.618Z,23.2
2019-01-24T05:28:20.831Z,22.9
2019-01-24T05:38:20.045Z,22.9
2019-01-24T05:48:19.263Z,23
2019-01-24T05:58:18.474Z,23
2019-01-24T06:08:17.683Z,22.9
2019-01-24T06:18:16.893Z,22.9
2019-01-24T06:28:16.103Z,22.9
2019-01-24T06:38:15.312Z,22.9
2019-01-24T06:48:14.520Z,22.9
2019-01-24T06:58:13.728Z,23.1
2019-01-24T07:08:12.935Z,23.2
2019-01-24T07:18:12.144Z,23.4
2019-01-24T07:28:11.350Z,23.5
2019-01-24T07:38:10.558Z,23.4
2019-01-24T07:48:09.766Z,23.4
2019-01-24T07:58:08.974Z,23.3
2019-01-24T08:08:08.178Z,23.4
2019-01-24T08:18:07.387Z,23.4
2019-01-24T08:28:06.594Z,23.4
2019-01-24T08:38:05.800Z,23.5
2019-01-24T08:48:05.005Z,23.6
2019-01-24T08:58:04.211Z,23.9
2019-01-24T09:08:03.417Z,24.2
2019-01-24T09:18:02.623Z,23.4
2019-01-24T09:28:01.835Z,24.1
2019-01-24T09:38:01.035Z,23.6
2019-01-24T09:48:00.242Z,23.4
2019-01-24T09:57:59.451Z,23.5
2019-01-24T10:07:58.653Z,23.6
2019-01-24T10:17:57.862Z,23.7
2019-01-24T10:27:57.066Z,24
2019-01-24T10:37:56.272Z,23.4
2019-01-24T10:47:55.477Z,23.5
2019-01-24T10:57:54.683Z,23.6
2019-01-24T11:07:53.888Z,23.7
2019-01-24T11:17:53.093Z,24.3
2019-01-24T11:27:52.300Z,23.6
2019-01-24T11:37:51.505Z,23.6
2019-01-24T11:47:50.712Z,23.8
2019-01-24T11:57:49.920Z,24
2019-01-24T12:07:49.123Z,23.6
2019-01-24T12:17:48.330Z,23.5
2019-01-24T12:27:47.534Z,23.6
2019-01-24T12:37:46.790Z,23.6
2019-01-24T12:47:45.946Z,23.6
2019-01-24T12:57:45.154Z,23.6
2019-01-24T13:07:44.356Z,23.5
2019-01-24T13:17:43.590Z,23.4
2019-01-24T13:27:42.768Z,23.3
2019-01-24T13:37:41.974Z,23.3
2019-01-24T13:47:41.183Z,23
2019-01-24T13:57:40.393Z,22.8
2019-01-24T14:07:39.603Z,22.7
2019-01-24T14:17:38.812Z,22.7
2019-01-24T14:27:38.021Z,22.6
2019-01-24T14:37:39.827Z,22.6
2019-01-24T14:47:36.492Z,22.5
2019-01-24T14:57:35.647Z,22.5
2019-01-24T15:07:34.861Z,22.8
2019-01-24T15:17:34.119Z,23.1
2019-01-24T15:27:33.281Z,22.8
2019-01-24T15:37:32.487Z,22.6
2019-01-24T15:47:31.697Z,22.6
2019-01-24T15:57:30.907Z,22.6
2019-01-24T16:07:30.115Z,22.5
2019-01-24T16:17:29.323Z,22.5
2019-01-24T16:27:28.534Z,22.7
2019-01-24T16:37:27.744Z,23.5
2019-01-24T16:47:26.957Z,23.6
2019-01-24T16:57:26.169Z,23.6
2019-01-24T17:07:25.380Z,23.8
2019-01-24T17:17:24.591Z,24.1
2019-01-24T17:27:23.808Z,23.5
2019-01-24T17:37:23.010Z,23.5
2019-01-24T17:47:22.224Z,23.4
2019-01-24T17:57:21.437Z,23.8
2019-01-24T18:07:20.659Z,24
2019-01-24T18:17:19.867Z,23.4
2019-01-24T18:27:19.082Z,23.6
2019-01-24T18:37:18.296Z,23.7
2019-01-24T18:47:17.508Z,23.6
2019-01-24T18:57:16.722Z,23.7
2019-01-24T19:07:15.939Z,23.6
2019-01-24T19:17:15.168Z,23.9
2019-01-24T19:27:14.355Z,23.7
2019-01-24T19:37:13.572Z,23.7
2019-01-24T19:47:12.779Z,24
2019-01-24T19:57:11.989Z,23.6
2019-01-24T20:07:11.199Z,23.9
2019-01-24T20:17:10.457Z,23.4
2019-01-24T20:27:09.627Z,23.6
2019-01-24T20:37:08.839Z,23.5
2019-01-24T20:47:08.050Z,23.5
2019-01-24T20:57:07.273Z,24.2
2019-01-24T21:07:06.474Z,23.9
2019-01-24T21:17:05.731Z,23.1
2019-01-24T21:27:04.892Z,23.1
2019-01-24T21:37:04.101Z,23.1
2019-01-24T21:47:03.309Z,23.3
2019-01-24T21:57:02.718Z,23.7
2019-01-24T22:07:01.725Z,24.2
2019-01-24T22:17:00.939Z,23.8
2019-01-24T22:27:00.142Z,22.9
2019-01-24T22:36:59.413Z,23.1
2019-01-24T22:46:58.564Z,23.1
2019-01-24T22:56:57.778Z,23.3
2019-01-24T23:06:56.974Z,23.6
2019-01-24T23:16:56.182Z,23.6
2019-01-24T23:26:55.390Z,23.7
2019-01-24T23:36:54.597Z,23.6
2019-01-24T23:46:53.804Z,23.7
2019-01-24T23:56:53.013Z,23.7
